Pittsburgh, PA

2:07 AM EDT on June 30, 2015 (GMT -0400)
Lower Gates Manor | | Change Station
CLOSE
Current Station
Personal Weather Station
Location: Munhall, PA
Elevation: 1050 ft
Nearby Weather Stations

Elev 1050 ft 40.39 °N, 79.92 °W | Updated 3 minutes ago

Light Rain
Light Rain Mist
62.1 °F
Feels Like 62.1 °F
N
0.0
Wind Variable Wind from SSW

Today
High -- | Low -- °F
--% Chance of Precip.
Yesterday
High -- | Low -- °F
Precip. -- in
5:52 AM 8:53 PM
Waxing Gibbous, 96% visible
Pressure 29.84 in
Visibility 6.0 miles
Clouds Few 4500 ft
Mostly Cloudy 5000 ft
Overcast 11000 ft
Dew Point 61 °F
Humidity 95%
Rainfall in
Snow Depth Not available.
UV 0 out of 12
Pollen 3.90 out of 12
Air Quality Not available.
Flu Activity Sporadic
METAR KAGC 300553Z 17008KT 6SM -RA BR FEW045 BKN050 OVC110 17/14 A2985 RMK AO2 RAB0454 SLP105 P0004 60048 T01670144 10189 20161 58006

More Conditions Fewer Conditions

Pressure 29.84 in
Visibility 6.0 miles
Clouds Few 4500 ft
Mostly Cloudy 5000 ft
Overcast 11000 ft
Dew Point 61 °F
Humidity 95%
Rainfall in
Snow Depth Not available.
UV 0 out of 12
Pollen 3.90 out of 12
Air Quality Not available.
Flu Activity Sporadic
METAR KAGC 300553Z 17008KT 6SM -RA BR FEW045 BKN050 OVC110 17/14 A2985 RMK AO2 RAB0454 SLP105 P0004 60048 T01670144 10189 20161 58006

More Conditions Fewer Conditions

10-Day Weather Forecast

×

Almanac

Astronomy

Jun. 30, 2015 Rise Set
Actual Time
Civil Twilight
Nautical Twilight
Astronomical Twilight
Moon
Length of Visible Light
Length of Day
Tomorrow will be .
, % of the Moon is Illuminated

Today's Extremes

State Highs State Lows

Community

WunderPhotos

Upload Photos

1,833,971 photos uploaded!

WunderBlogs® & News

Nearby

Air Quality

  Air Quality AQ Index Pollutant
Not available.

Snow Depth

Station Depth Elevation

Earthquake Activity

City Distance Mag. Time & Date
Minimum magnitude displayed is 2.5.

Coastal Water Temperatures

Place Temperature

Stations

Nearby Weather Stations

Station Location Temp. Windchill Dew Point Humidity Wind Precip. Elev Updated Type